Terminal Aerodrome Forecast
Issued by NWS Memphis, TN

Home | Current Version | Previous Version | Text Only | Print | Product List | Glossary On
Versions: 1 2 3 4 5 6 7 8 9 10 11 12 13 14 15 16 17 18 19 20
547
FTUS44 KMEG 281131
TAFJBR
TAF
KJBR 281131Z 2812/2912 19023G32KT P6SM BKN100
     FM281500 21012G20KT P6SM BKN015 OVC030
     FM281800 25010G17KT P6SM BKN030
     FM282100 26010G17KT P6SM BKN050
     FM290000 28007KT P6SM SCT060=

USA.gov is the U.S. government's official web portal to all federal, state and local government web resources and services.